createdAt,value
2023-02-04T00:00:21.683Z,1040
2023-02-04T00:01:21.644Z,1363
2023-02-04T00:02:21.697Z,1352
2023-02-04T00:04:21.772Z,1336
2023-02-04T00:05:21.629Z,1207
2023-02-04T00:06:21.606Z,1268
2023-02-04T00:07:21.642Z,969
2023-02-04T00:09:21.798Z,901
2023-02-04T00:10:21.610Z,1418
2023-02-04T00:11:21.597Z,1239
2023-02-04T00:12:21.602Z,1109
2023-02-04T00:14:21.788Z,1207
2023-02-04T00:15:21.606Z,1232
2023-02-04T00:16:21.705Z,1303
2023-02-04T00:17:21.669Z,878
2023-02-04T00:19:21.852Z,1246
2023-02-04T00:20:21.690Z,1258
2023-02-04T00:21:21.664Z,1303
2023-02-04T00:22:21.687Z,1291
2023-02-04T00:24:21.810Z,1004
2023-02-04T00:25:21.633Z,878
2023-02-04T00:26:21.686Z,653
2023-02-04T00:27:21.667Z,1004
2023-02-04T00:29:21.816Z,1147
2023-02-04T00:30:21.660Z,1186
2023-02-04T00:31:21.721Z,1339
2023-02-04T00:32:21.699Z,962
2023-02-04T00:34:21.778Z,957
2023-02-04T00:35:21.669Z,1052
2023-02-04T00:36:21.670Z,1016
2023-02-04T00:37:21.672Z,1134
2023-02-04T00:39:21.869Z,1091
2023-02-04T00:40:21.685Z,1075
2023-02-04T00:41:21.676Z,743
2023-02-04T00:42:21.675Z,914
2023-02-04T00:44:21.860Z,1281
2023-02-04T00:45:21.678Z,1401
2023-02-04T00:46:21.673Z,1322
2023-02-04T00:47:21.673Z,1254
2023-02-04T00:49:21.842Z,1401
2023-02-04T00:50:21.679Z,933
2023-02-04T00:51:21.701Z,949
2023-02-04T00:52:21.623Z,1190
2023-02-04T00:54:21.821Z,1299
2023-02-04T00:55:21.673Z,1410
2023-02-04T00:56:21.727Z,971
2023-02-04T00:57:21.686Z,786
2023-02-04T00:59:21.825Z,878
2023-02-04T01:00:21.693Z,1401
2023-02-04T01:01:21.742Z,1367
2023-02-04T01:02:21.678Z,1224
2023-02-04T01:04:21.826Z,1141
2023-02-04T01:05:21.670Z,1273
2023-02-04T01:06:21.681Z,819
2023-02-04T01:07:21.732Z,890
2023-02-04T01:09:21.845Z,1186
2023-02-04T01:10:21.686Z,1088
2023-02-04T01:11:21.707Z,1194
2023-02-04T01:12:21.681Z,1121
2023-02-04T01:14:21.831Z,983
2023-02-04T01:15:21.682Z,904
2023-02-04T01:16:21.664Z,1224
2023-02-04T01:17:21.707Z,899
2023-02-04T01:19:21.901Z,847
2023-02-04T01:20:21.707Z,901
2023-02-04T01:21:21.634Z,1183
2023-02-04T01:22:21.639Z,995
2023-02-04T01:24:21.814Z,1500
2023-02-04T01:25:21.695Z,852
2023-02-04T03:26:53.073Z,671
2023-02-04T05:32:24.449Z,1474
2023-02-04T05:33:24.309Z,1550
2023-02-04T05:34:24.258Z,1557
2023-02-04T05:35:24.300Z,1344
2023-02-04T05:37:24.458Z,1500
2023-02-04T05:38:24.257Z,1821
2023-02-04T05:39:24.263Z,1299
2023-02-04T05:40:24.339Z,1235
2023-02-04T05:41:24.321Z,1653
2023-02-04T05:42:24.452Z,1821
2023-02-04T05:43:24.266Z,1658
2023-02-04T05:44:25.138Z,1673
2023-02-04T05:45:24.313Z,1633
2023-02-04T05:46:24.297Z,1617
2023-02-04T05:47:24.455Z,1590
2023-02-04T05:48:24.265Z,1355
2023-02-04T05:49:24.305Z,1523
2023-02-04T05:50:24.302Z,1465
2023-02-04T05:51:24.307Z,1170
2023-02-04T05:52:24.448Z,1179
2023-02-04T05:53:26.078Z,1198
2023-02-04T05:54:24.305Z,1328
2023-02-04T05:55:24.336Z,1418
2023-02-04T05:57:24.539Z,1590
2023-02-04T05:58:24.339Z,1832
2023-02-04T05:59:24.260Z,1772
2023-02-04T06:00:24.262Z,1811
2023-02-04T06:02:24.524Z,1569
2023-02-04T06:03:24.290Z,1761
2023-02-04T06:04:24.313Z,1746
2023-02-04T06:05:24.283Z,1767
2023-02-04T06:07:24.543Z,1352
2023-02-04T06:08:24.307Z,1776
2023-02-04T06:09:24.318Z,1776
2023-02-04T06:12:24.826Z,1613
2023-02-04T07:25:56.026Z,1688
2023-02-04T09:55:56.378Z,1380
2023-02-04T09:56:56.110Z,1224
2023-02-04T09:57:56.141Z,1987
2023-02-04T09:58:56.104Z,1318
2023-02-04T10:00:56.377Z,1487
2023-02-04T10:01:56.140Z,1945
2023-02-04T10:02:56.144Z,1418
2023-02-04T10:03:56.139Z,1474
2023-02-04T10:05:56.311Z,1504
2023-02-04T10:06:56.142Z,1761
2023-02-04T10:07:56.107Z,1740
2023-02-04T10:08:56.143Z,1265
2023-02-04T10:10:57.996Z,1265
2023-02-04T10:11:56.138Z,1461
2023-02-04T10:12:56.169Z,1836
2023-02-04T10:13:56.122Z,1314
2023-02-04T10:15:56.280Z,1418
2023-02-04T10:16:58.600Z,1355
2023-02-04T10:17:56.108Z,1311
2023-02-04T10:18:56.156Z,1311
2023-02-04T10:20:56.286Z,1311
2023-02-04T10:21:56.125Z,1224
2023-02-04T10:22:56.132Z,1427
2023-02-04T10:23:56.132Z,1474
2023-02-04T10:25:56.294Z,1224
2023-02-04T10:26:56.138Z,1246
2023-02-04T10:27:56.200Z,1574
2023-02-04T10:28:56.131Z,1673
2023-02-04T10:30:56.338Z,1376
2023-02-04T10:31:56.226Z,1667
2023-02-04T10:32:56.135Z,1550
2023-02-04T10:33:56.143Z,1461
2023-02-04T10:35:56.285Z,1726
2023-02-04T10:36:56.118Z,1435
2023-02-04T10:37:56.143Z,1435
2023-02-04T10:38:56.116Z,1474
2023-02-04T10:40:56.300Z,2035
2023-02-04T10:41:56.119Z,1483
2023-02-04T10:42:56.129Z,1500
2023-02-04T10:43:56.116Z,1496
2023-02-04T10:45:56.408Z,1557
2023-02-04T10:46:56.129Z,1541
2023-02-04T10:47:56.129Z,1435
2023-02-04T10:48:56.125Z,1435
2023-02-04T10:50:56.327Z,1435
2023-02-04T10:51:57.639Z,1444
2023-02-04T10:52:56.125Z,1439
2023-02-04T10:53:56.188Z,1410
2023-02-04T10:55:56.317Z,1410
2023-02-04T10:56:56.161Z,1439
